createdAt,value
2022-09-29T00:02:13.342Z,1.63
2022-09-29T00:04:40.464Z,3.83
2022-09-29T00:07:07.563Z,1.58
2022-09-29T00:09:34.983Z,1.80
2022-09-29T00:12:02.212Z,1.30
2022-09-29T00:14:29.313Z,2.13
2022-09-29T00:16:57.152Z,2.35
2022-09-29T00:19:25.509Z,1.40
2022-09-29T00:21:52.800Z,3.35
2022-09-29T00:24:20.013Z,1.25
2022-09-29T00:26:47.622Z,1.27
2022-09-29T00:29:14.735Z,2.00
2022-09-29T00:31:41.892Z,6.78
2022-09-29T00:34:09.152Z,1.20
2022-09-29T00:36:36.239Z,2.63
2022-09-29T00:39:03.455Z,3.25
2022-09-29T00:41:32.595Z,1.70
2022-09-29T00:44:15.022Z,1.17
2022-09-29T00:46:46.926Z,2.30
2022-09-29T00:49:20.211Z,1.98
2022-09-29T00:51:52.777Z,1.88
2022-09-29T00:54:20.779Z,1.55
2022-09-29T00:56:50.046Z,1.88
2022-09-29T00:59:22.332Z,1.70
2022-09-29T01:01:49.480Z,1.60
2022-09-29T01:04:19.103Z,4.03
2022-09-29T01:06:54.101Z,1.98
2022-09-29T01:09:24.270Z,2.20
2022-09-29T01:11:55.029Z,1.63
2022-09-29T01:14:22.604Z,1.45
2022-09-29T01:16:49.697Z,3.40
2022-09-29T01:19:25.981Z,3.17
2022-09-29T01:22:11.703Z,2.47
2022-09-29T01:24:54.118Z,2.35
2022-09-29T01:27:39.719Z,2.30
2022-09-29T01:30:15.472Z,2.28
2022-09-29T01:32:51.495Z,1.55
2022-09-29T01:35:27.870Z,1.55
2022-09-29T01:38:15.657Z,1.60
2022-09-29T01:40:45.941Z,3.45
2022-09-29T01:43:20.755Z,2.13
2022-09-29T01:46:02.944Z,1.77
2022-09-29T01:48:33.798Z,1.83
2022-09-29T01:51:02.812Z,1.80
2022-09-29T01:53:34.146Z,3.25
2022-09-29T01:56:03.466Z,5.60
2022-09-29T01:58:50.796Z,2.40
2022-09-29T02:01:19.511Z,1.90
2022-09-29T02:03:55.248Z,1.40
2022-09-29T02:06:24.379Z,1.23
2022-09-29T02:08:56.182Z,1.63
2022-09-29T02:11:23.667Z,1.70
2022-09-29T02:13:54.044Z,2.78
2022-09-29T02:16:25.062Z,1.20
2022-09-29T02:18:58.288Z,1.30
2022-09-29T02:21:26.287Z,1.20
2022-09-29T02:23:53.497Z,1.63
2022-09-29T02:26:21.230Z,1.33
2022-09-29T02:28:48.352Z,1.48
2022-09-29T02:31:15.547Z,1.30
2022-09-29T02:33:42.752Z,1.33
2022-09-29T02:36:13.185Z,4.50
2022-09-29T02:38:40.260Z,2.53
2022-09-29T02:41:13.025Z,1.55
2022-09-29T02:44:03.136Z,1.52
2022-09-29T02:46:33.244Z,1.95
2022-09-29T02:49:00.358Z,2.08
2022-09-29T02:51:33.014Z,1.75
2022-09-29T02:54:19.075Z,2.38
2022-09-29T02:56:55.546Z,2.00
2022-09-29T02:59:27.363Z,1.73
2022-09-29T03:01:56.046Z,1.98
2022-09-29T03:04:24.289Z,1.70
2022-09-29T03:06:51.443Z,3.00
2022-09-29T03:09:18.991Z,2.00
2022-09-29T03:11:46.359Z,1.80
2022-09-29T03:14:13.463Z,1.95
2022-09-29T03:16:40.700Z,1.85
2022-09-29T03:19:07.869Z,1.60
2022-09-29T03:21:35.552Z,2.75
2022-09-29T03:24:02.794Z,1.80
2022-09-29T03:26:30.244Z,1.85
2022-09-29T03:28:57.395Z,3.30
2022-09-29T03:31:24.629Z,2.35
2022-09-29T03:33:51.778Z,3.35
2022-09-29T03:36:19.006Z,1.83
2022-09-29T03:38:47.249Z,4.57
2022-09-29T03:41:14.479Z,1.75
2022-09-29T03:43:41.634Z,3.30
2022-09-29T03:46:08.829Z,3.08
2022-09-29T03:48:36.278Z,3.00
2022-09-29T03:51:03.934Z,2.65
2022-09-29T03:53:31.362Z,2.38
2022-09-29T03:55:58.452Z,2.10
2022-09-29T03:58:25.640Z,3.22
2022-09-29T04:00:52.932Z,1.80
2022-09-29T04:03:20.628Z,2.50
2022-09-29T04:05:48.646Z,5.70
2022-09-29T04:08:16.234Z,5.03
2022-09-29T04:10:43.757Z,1.95
2022-09-29T04:13:10.907Z,2.17
2022-09-29T04:15:38.145Z,4.07
2022-09-29T04:18:06.134Z,2.38
2022-09-29T04:20:33.268Z,2.60
2022-09-29T04:23:01.167Z,3.30
2022-09-29T04:25:28.509Z,4.68
2022-09-29T04:27:55.652Z,3.00
2022-09-29T04:30:22.801Z,2.42
2022-09-29T04:32:49.929Z,3.30
2022-09-29T04:35:17.207Z,4.88
2022-09-29T04:37:44.464Z,3.00
2022-09-29T04:40:11.801Z,4.95
2022-09-29T04:42:38.915Z,5.45
2022-09-29T04:45:06.403Z,3.30
2022-09-29T04:47:33.531Z,2.97
2022-09-29T04:50:00.640Z,3.92
2022-09-29T04:52:27.776Z,2.60
2022-09-29T04:54:54.939Z,3.10
2022-09-29T04:57:22.076Z,2.90
2022-09-29T04:59:51.774Z,2.85
2022-09-29T05:02:19.510Z,4.00
2022-09-29T05:04:47.645Z,2.78
2022-09-29T05:07:15.383Z,3.35
2022-09-29T05:09:42.526Z,2.80
2022-09-29T05:12:09.823Z,2.92
2022-09-29T05:14:37.036Z,8.02
2022-09-29T05:17:04.345Z,3.00
2022-09-29T05:19:32.174Z,4.35
2022-09-29T05:21:59.927Z,4.20
2022-09-29T05:24:27.359Z,3.42
2022-09-29T05:26:58.293Z,3.63
2022-09-29T05:29:26.035Z,3.22
2022-09-29T05:31:53.289Z,3.08
2022-09-29T05:34:20.877Z,3.25
2022-09-29T05:36:47.954Z,2.97
2022-09-29T05:39:15.243Z,2.90
2022-09-29T05:41:42.528Z,2.47
2022-09-29T05:44:09.755Z,3.10
2022-09-29T05:46:36.881Z,3.58
2022-09-29T05:49:04.087Z,2.42
2022-09-29T05:51:31.267Z,3.33
2022-09-29T05:53:58.370Z,3.92
2022-09-29T05:56:26.894Z,3.35
2022-09-29T05:58:54.598Z,4.38
2022-09-29T06:01:23.303Z,3.55
2022-09-29T06:03:53.457Z,3.55
2022-09-29T06:06:21.961Z,3.75
2022-09-29T06:08:49.534Z,4.03
2022-09-29T06:11:21.309Z,4.65
2022-09-29T06:13:49.372Z,6.53
2022-09-29T06:16:17.595Z,2.88
2022-09-29T06:18:44.717Z,3.88
2022-09-29T06:21:13.704Z,3.42
2022-09-29T06:23:40.822Z,5.72
2022-09-29T06:26:09.375Z,2.88
2022-09-29T06:28:36.922Z,4.68
2022-09-29T06:31:05.622Z,2.63
2022-09-29T06:33:33.594Z,2.65
2022-09-29T06:36:21.495Z,2.60
2022-09-29T06:38:48.924Z,3.53
2022-09-29T06:41:16.064Z,2.83
2022-09-29T06:43:43.191Z,5.30
2022-09-29T06:46:10.366Z,5.95
2022-09-29T06:48:37.769Z,5.93
2022-09-29T06:51:10.367Z,2.72
2022-09-29T06:53:39.048Z,5.20
2022-09-29T06:56:06.636Z,3.70
2022-09-29T06:58:34.152Z,2.95
2022-09-29T07:01:02.063Z,5.72
2022-09-29T07:03:32.474Z,5.18
2022-09-29T07:06:18.879Z,5.47
2022-09-29T07:08:47.198Z,3.72
2022-09-29T07:11:15.076Z,4.75
2022-09-29T07:13:44.872Z,4.90
2022-09-29T07:16:13.683Z,4.07
2022-09-29T07:18:42.120Z,7.10
2022-09-29T07:21:10.322Z,5.25
2022-09-29T07:23:37.893Z,5.05
2022-09-29T07:26:06.415Z,7.10
2022-09-29T07:28:33.810Z,3.63
2022-09-29T07:31:14.444Z,5.63
2022-09-29T07:33:42.832Z,6.80
2022-09-29T07:36:10.401Z,2.33
2022-09-29T07:38:37.526Z,2.72
2022-09-29T07:41:09.114Z,3.42
2022-09-29T07:43:36.243Z,3.25
2022-09-29T07:46:03.681Z,2.53
2022-09-29T07:48:32.319Z,1.70
2022-09-29T07:51:03.495Z,2.22
2022-09-29T07:53:31.369Z,2.63
2022-09-29T07:56:05.710Z,1.50
2022-09-29T07:58:33.204Z,3.03
2022-09-29T08:01:01.336Z,2.53
2022-09-29T08:03:30.154Z,3.85
2022-09-29T08:06:00.231Z,1.95
2022-09-29T08:08:27.581Z,2.13
2022-09-29T08:11:02.005Z,2.17
2022-09-29T08:13:30.447Z,1.27
2022-09-29T08:16:01.445Z,1.25
2022-09-29T08:18:29.053Z,1.63
2022-09-29T08:20:59.966Z,4.10
2022-09-29T08:23:31.786Z,1.45
2022-09-29T08:26:06.797Z,1.08
2022-09-29T08:31:08.342Z,1.35
2022-09-29T08:33:36.071Z,4.63
2022-09-29T08:36:14.407Z,2.47
2022-09-29T08:38:45.452Z,3.50
2022-09-29T08:41:33.988Z,1.27
2022-09-29T08:44:31.169Z,0.73
2022-09-29T08:47:25.231Z,0.95
2022-09-29T08:49:56.447Z,1.00
2022-09-29T08:52:40.344Z,0.88
2022-09-29T08:55:21.564Z,2.03
2022-09-29T08:57:51.946Z,3.15
2022-09-29T09:00:20.428Z,5.22
2022-09-29T09:03:06.360Z,2.72
2022-09-29T09:05:48.986Z,0.40
2022-09-29T09:08:21.356Z,0.38
2022-09-29T09:11:17.501Z,0.47
2022-09-29T09:14:07.226Z,0.50
2022-09-29T09:16:47.511Z,1.02
2022-09-29T09:19:29.544Z,1.05
2022-09-29T09:22:23.247Z,1.80
2022-09-29T09:24:50.426Z,1.80
2022-09-29T09:27:23.040Z,1.13
2022-09-29T09:29:51.399Z,1.52
2022-09-29T09:32:23.951Z,1.52
2022-09-29T09:34:59.015Z,2.50
2022-09-29T09:37:35.382Z,3.35
2022-09-29T09:40:11.749Z,1.20
2022-09-29T09:45:51.260Z,0.70
2022-09-29T09:48:23.992Z,1.67
2022-09-29T09:50:53.105Z,0.40
2022-09-29T09:53:23.358Z,3.80
2022-09-29T09:55:54.902Z,0.50
2022-09-29T09:58:28.298Z,0.57
2022-09-29T10:00:57.491Z,0.85
2022-09-29T10:03:24.683Z,1.52
2022-09-29T10:05:51.919Z,1.88
2022-09-29T10:08:40.082Z,0.88
2022-09-29T10:11:23.011Z,0.80
2022-09-29T10:13:53.504Z,1.05
2022-09-29T10:16:24.025Z,1.33
2022-09-29T10:18:52.833Z,2.47
2022-09-29T10:21:23.412Z,1.60
2022-09-29T10:23:54.467Z,2.00
2022-09-29T10:26:27.423Z,1.88
2022-09-29T10:28:59.037Z,1.38
2022-09-29T10:31:30.598Z,0.60
2022-09-29T10:34:14.486Z,2.10
2022-09-29T10:36:52.953Z,0.60
2022-09-29T10:39:39.242Z,0.90
2022-09-29T10:42:16.891Z,1.55
2022-09-29T10:44:44.224Z,0.85
2022-09-29T10:47:17.353Z,0.82
2022-09-29T10:49:44.526Z,0.88
2022-09-29T10:52:25.810Z,2.47
2022-09-29T10:54:55.127Z,1.20
2022-09-29T10:57:26.244Z,1.75
2022-09-29T10:59:56.377Z,1.67
2022-09-29T11:02:29.977Z,1.13
2022-09-29T11:04:57.941Z,2.28
2022-09-29T11:07:25.466Z,1.88
2022-09-29T11:09:54.828Z,1.13
2022-09-29T11:12:30.029Z,1.58
2022-09-29T11:14:57.380Z,1.60
2022-09-29T11:17:40.002Z,2.53
2022-09-29T11:20:18.351Z,0.98
2022-09-29T11:22:53.178Z,0.98
2022-09-29T11:25:30.430Z,2.75
2022-09-29T11:28:16.236Z,0.65
2022-09-29T11:31:02.235Z,0.90
2022-09-29T11:33:41.483Z,1.48
2022-09-29T11:36:24.017Z,1.52
2022-09-29T11:39:23.862Z,1.20
2022-09-29T11:42:09.826Z,2.60
2022-09-29T11:44:43.057Z,1.08
2022-09-29T11:47:22.283Z,1.88
2022-09-29T11:49:56.117Z,2.50
2022-09-29T11:52:30.267Z,1.55
2022-09-29T11:55:09.891Z,0.90
2022-09-29T11:57:37.268Z,1.40
2022-09-29T12:00:09.755Z,1.30
2022-09-29T12:02:51.468Z,2.08
2022-09-29T12:05:39.850Z,1.17
2022-09-29T12:08:10.346Z,0.70
2022-09-29T12:10:56.347Z,1.27
2022-09-29T12:13:38.452Z,1.35
2022-09-29T12:16:16.811Z,1.15
2022-09-29T12:18:49.450Z,1.50
2022-09-29T12:21:18.953Z,1.70
2022-09-29T12:23:47.578Z,1.13
2022-09-29T12:26:16.763Z,2.55
2022-09-29T12:28:51.996Z,1.95
2022-09-29T12:31:22.334Z,1.30
2022-09-29T12:33:51.518Z,2.00
2022-09-29T12:36:45.686Z,1.77
2022-09-29T12:39:30.053Z,1.38
2022-09-29T12:42:01.014Z,1.83
2022-09-29T12:44:29.490Z,1.20
2022-09-29T12:47:04.267Z,1.00
2022-09-29T12:49:43.146Z,1.25
2022-09-29T12:52:16.593Z,3.38
2022-09-29T12:54:48.466Z,1.30
2022-09-29T12:57:16.572Z,2.97
2022-09-29T12:59:55.886Z,2.28
2022-09-29T13:02:28.036Z,2.35
2022-09-29T13:04:55.191Z,2.42
2022-09-29T13:07:25.295Z,2.00
2022-09-29T13:09:52.374Z,3.47
2022-09-29T13:12:25.611Z,2.35
2022-09-29T13:15:05.622Z,2.20
2022-09-29T13:17:51.435Z,2.20
2022-09-29T13:20:24.523Z,2.70
2022-09-29T13:22:51.688Z,2.10
2022-09-29T13:25:22.412Z,2.50
2022-09-29T13:27:50.354Z,2.95
2022-09-29T13:30:17.598Z,2.38
2022-09-29T13:33:10.967Z,5.03
2022-09-29T13:35:39.603Z,4.25
2022-09-29T13:38:09.107Z,2.35
2022-09-29T13:40:36.552Z,3.55
2022-09-29T13:43:07.868Z,2.53
2022-09-29T13:45:35.540Z,3.80
2022-09-29T13:48:03.970Z,4.00
2022-09-29T13:50:40.847Z,4.32
2022-09-29T13:53:20.326Z,3.40
2022-09-29T13:55:50.480Z,3.42
2022-09-29T13:58:28.284Z,2.97
2022-09-29T14:00:56.819Z,4.15
2022-09-29T14:03:37.492Z,4.40
2022-09-29T14:06:28.751Z,3.25
2022-09-29T14:08:59.738Z,3.55
2022-09-29T14:11:29.632Z,4.80
2022-09-29T14:13:59.685Z,2.65
2022-09-29T14:16:35.887Z,2.95
2022-09-29T14:19:07.466Z,3.40
2022-09-29T14:21:46.929Z,3.55
2022-09-29T14:24:32.939Z,3.95
2022-09-29T14:27:16.064Z,5.32
2022-09-29T14:29:45.216Z,3.53
2022-09-29T14:32:15.951Z,3.33
2022-09-29T14:34:43.153Z,4.38
2022-09-29T14:37:16.017Z,4.00
2022-09-29T14:40:03.474Z,4.25
2022-09-29T14:42:31.735Z,4.40
2022-09-29T14:45:17.782Z,4.50
2022-09-29T14:48:20.665Z,5.05
2022-09-29T14:51:13.044Z,3.30
2022-09-29T14:53:46.776Z,4.78
2022-09-29T14:56:28.695Z,3.90
2022-09-29T14:59:03.247Z,5.63
2022-09-29T15:01:31.738Z,4.00
2022-09-29T15:04:05.258Z,5.70
2022-09-29T15:06:32.526Z,6.68
2022-09-29T15:08:59.919Z,4.35
2022-09-29T15:11:28.404Z,5.85
2022-09-29T15:13:56.719Z,4.18
2022-09-29T15:16:47.318Z,5.07
2022-09-29T15:19:33.409Z,5.63
2022-09-29T15:22:03.506Z,5.00
2022-09-29T15:24:33.650Z,4.03
2022-09-29T15:27:02.367Z,4.68
2022-09-29T15:29:29.552Z,3.53
2022-09-29T15:31:56.655Z,3.95
2022-09-29T15:34:28.169Z,4.03
2022-09-29T15:36:56.358Z,4.40
2022-09-29T15:39:33.087Z,6.63
2022-09-29T15:42:02.062Z,6.75
2022-09-29T15:44:30.341Z,5.20
2022-09-29T15:46:58.140Z,3.67
2022-09-29T15:49:26.218Z,3.83
2022-09-29T15:51:57.008Z,5.35
2022-09-29T15:54:24.947Z,3.83
2022-09-29T15:57:10.847Z,5.35
2022-09-29T15:59:51.664Z,4.50
2022-09-29T16:02:23.706Z,5.38
2022-09-29T16:04:53.047Z,4.53
2022-09-29T16:07:39.598Z,4.78
2022-09-29T16:10:12.422Z,6.93
2022-09-29T16:12:40.908Z,4.00
2022-09-29T16:15:08.504Z,4.82
2022-09-29T16:17:35.670Z,4.68
2022-09-29T16:20:03.592Z,4.32
2022-09-29T16:22:30.707Z,7.78
2022-09-29T16:25:12.159Z,6.95
2022-09-29T16:28:07.392Z,5.43
2022-09-29T16:30:35.966Z,5.78
2022-09-29T16:33:04.912Z,4.65
2022-09-29T16:35:39.760Z,5.13
2022-09-29T16:38:25.445Z,5.35
2022-09-29T16:40:56.833Z,4.55
2022-09-29T16:43:26.566Z,6.68
2022-09-29T16:45:56.467Z,4.82
2022-09-29T16:48:24.556Z,5.13
2022-09-29T16:50:55.366Z,4.43
2022-09-29T16:53:24.672Z,4.18
2022-09-29T16:55:59.105Z,5.35
2022-09-29T16:58:27.274Z,5.95
2022-09-29T17:00:54.401Z,6.03
2022-09-29T17:03:21.526Z,4.85
2022-09-29T17:05:48.755Z,6.75
2022-09-29T17:08:18.563Z,4.63
2022-09-29T17:10:45.810Z,4.45
2022-09-29T17:13:14.748Z,5.35
2022-09-29T17:15:43.038Z,4.43
2022-09-29T17:18:12.728Z,4.35
2022-09-29T17:20:39.846Z,5.82
2022-09-29T17:23:07.947Z,5.97
2022-09-29T17:25:36.571Z,7.35
2022-09-29T17:28:14.737Z,6.45
2022-09-29T17:30:46.299Z,5.80
2022-09-29T17:33:16.014Z,6.43
2022-09-29T17:35:52.979Z,6.18
2022-09-29T17:38:22.298Z,7.07
2022-09-29T17:40:58.659Z,6.28
2022-09-29T17:43:25.842Z,7.43
2022-09-29T17:45:57.165Z,8.63
2022-09-29T17:48:24.377Z,9.32
2022-09-29T17:50:52.683Z,8.63
2022-09-29T17:53:19.867Z,10.98
2022-09-29T17:55:49.645Z,10.52
2022-09-29T17:58:17.678Z,7.32
2022-09-29T18:00:49.204Z,8.57
2022-09-29T18:03:18.269Z,8.43
2022-09-29T18:05:47.551Z,10.50
2022-09-29T18:08:16.084Z,9.65
2022-09-29T18:10:53.571Z,8.77
2022-09-29T18:13:21.276Z,9.23
2022-09-29T18:15:48.458Z,11.02
2022-09-29T18:18:17.364Z,7.55
2022-09-29T18:20:52.646Z,9.73
2022-09-29T18:23:20.829Z,9.05
2022-09-29T18:25:49.986Z,9.95
2022-09-29T18:28:17.502Z,8.68
2022-09-29T18:30:46.361Z,9.43
2022-09-29T18:33:15.272Z,9.38
2022-09-29T18:35:43.691Z,8.88
2022-09-29T18:38:11.089Z,10.07
2022-09-29T18:40:39.092Z,9.27
2022-09-29T18:43:07.109Z,8.60
2022-09-29T18:45:38.469Z,7.93
2022-09-29T18:48:07.105Z,9.55
2022-09-29T18:50:35.893Z,12.07
2022-09-29T18:53:03.080Z,8.82
2022-09-29T18:55:31.022Z,10.30
2022-09-29T18:57:59.127Z,10.20
2022-09-29T19:00:39.216Z,11.38
2022-09-29T19:03:06.459Z,13.40
2022-09-29T19:05:34.262Z,9.60
2022-09-29T19:08:02.540Z,11.75
2022-09-29T19:10:32.459Z,7.57
2022-09-29T19:13:02.675Z,6.57
2022-09-29T19:15:33.075Z,6.07
2022-09-29T19:18:02.559Z,6.05
2022-09-29T19:20:30.118Z,7.28
2022-09-29T19:23:02.520Z,6.65
2022-09-29T19:25:31.171Z,6.25
2022-09-29T19:27:59.174Z,7.07
2022-09-29T19:30:26.780Z,9.18
2022-09-29T19:32:54.339Z,7.10
2022-09-29T19:35:22.785Z,7.57
2022-09-29T19:37:51.531Z,10.55
2022-09-29T19:40:21.150Z,6.72
2022-09-29T19:42:48.360Z,8.40
2022-09-29T19:45:15.487Z,6.20
2022-09-29T19:47:42.816Z,6.50
2022-09-29T19:50:28.883Z,7.68
2022-09-29T19:52:56.521Z,7.25
2022-09-29T19:55:24.323Z,9.38
2022-09-29T19:57:51.467Z,7.22
2022-09-29T20:00:20.309Z,7.72
2022-09-29T20:02:47.503Z,8.63
2022-09-29T20:05:15.517Z,7.68
2022-09-29T20:07:44.078Z,8.45
2022-09-29T20:10:15.016Z,9.55
2022-09-29T20:12:42.400Z,8.70
2022-09-29T20:15:11.850Z,10.07
2022-09-29T20:17:40.189Z,8.10
2022-09-29T20:20:08.279Z,9.73
2022-09-29T20:22:36.469Z,12.00
2022-09-29T20:25:04.296Z,11.90
2022-09-29T20:27:31.894Z,11.38
2022-09-29T20:29:59.029Z,11.52
2022-09-29T20:32:26.234Z,10.27
2022-09-29T20:34:53.335Z,9.80
2022-09-29T20:37:20.418Z,11.60
2022-09-29T20:39:50.115Z,14.68
2022-09-29T20:42:17.971Z,10.23
2022-09-29T20:44:45.075Z,8.63
2022-09-29T20:47:12.193Z,9.18
2022-09-29T20:49:39.395Z,10.05
2022-09-29T20:52:07.044Z,10.13
2022-09-29T20:54:35.502Z,8.98
2022-09-29T20:57:03.459Z,9.77
2022-09-29T20:59:32.406Z,9.50
2022-09-29T21:02:00.526Z,8.65
2022-09-29T21:04:27.828Z,8.95
2022-09-29T21:06:55.011Z,9.95
2022-09-29T21:09:24.084Z,10.32
2022-09-29T21:11:52.635Z,10.32
2022-09-29T21:14:21.223Z,9.82
2022-09-29T21:16:51.039Z,8.43
2022-09-29T21:19:18.739Z,9.30
2022-09-29T21:21:45.866Z,10.60
2022-09-29T21:24:14.428Z,11.63
2022-09-29T21:26:41.678Z,11.43
2022-09-29T21:29:09.242Z,11.55
2022-09-29T21:31:36.719Z,10.45
2022-09-29T21:34:05.407Z,10.95
2022-09-29T21:36:33.385Z,9.13
2022-09-29T21:39:03.881Z,10.00
2022-09-29T21:41:34.341Z,9.75
2022-09-29T21:44:03.531Z,8.27
2022-09-29T21:46:32.225Z,9.60
2022-09-29T21:49:00.943Z,10.23
2022-09-29T21:51:29.412Z,9.50
2022-09-29T21:53:57.763Z,11.20
2022-09-29T21:56:27.286Z,9.27
2022-09-29T21:58:56.369Z,9.50
2022-09-29T22:01:24.134Z,8.48
2022-09-29T22:03:51.958Z,8.60
2022-09-29T22:06:20.619Z,9.20
2022-09-29T22:08:48.194Z,9.40
2022-09-29T22:11:15.980Z,11.05
2022-09-29T22:13:43.138Z,8.25
2022-09-29T22:16:11.435Z,8.40
2022-09-29T22:18:42.431Z,11.10
2022-09-29T22:21:10.846Z,7.78
2022-09-29T22:23:38.024Z,9.88
2022-09-29T22:26:05.944Z,8.00
2022-09-29T22:28:33.099Z,10.80
2022-09-29T22:31:08.706Z,8.50
2022-09-29T22:33:36.991Z,8.05
2022-09-29T22:36:05.062Z,8.60
2022-09-29T22:38:33.215Z,8.20
2022-09-29T22:41:00.455Z,8.20
2022-09-29T22:43:27.551Z,8.13
2022-09-29T22:45:54.663Z,10.10
2022-09-29T22:48:21.877Z,7.60
2022-09-29T22:50:49.279Z,8.80
2022-09-29T22:53:16.748Z,7.80
2022-09-29T22:55:43.850Z,7.60
2022-09-29T22:58:11.303Z,7.32
2022-09-29T23:00:39.250Z,8.32
2022-09-29T23:03:06.639Z,8.48
2022-09-29T23:05:35.103Z,8.50
2022-09-29T23:08:02.368Z,7.18
2022-09-29T23:10:29.727Z,9.20
2022-09-29T23:12:56.806Z,8.07
2022-09-29T23:15:24.024Z,9.98
2022-09-29T23:17:51.269Z,8.95
2022-09-29T23:20:18.443Z,11.07
2022-09-29T23:22:45.595Z,7.63
2022-09-29T23:25:12.882Z,9.75
2022-09-29T23:27:40.012Z,9.20
2022-09-29T23:30:07.382Z,10.10
2022-09-29T23:32:34.494Z,9.73
2022-09-29T23:35:01.585Z,10.35
2022-09-29T23:37:48.699Z,9.68
2022-09-29T23:40:15.825Z,9.32
2022-09-29T23:42:42.970Z,9.10
2022-09-29T23:45:10.314Z,10.15
2022-09-29T23:47:37.455Z,9.23
2022-09-29T23:50:04.605Z,9.68
2022-09-29T23:52:31.761Z,10.90
2022-09-29T23:54:58.877Z,9.55
2022-09-29T23:57:26.100Z,10.88
2022-09-29T23:59:53.204Z,10.68
